sensor_id;sensor_type;location;lat;lon;timestamp;P1;durP1;ratioP1;P2;durP2;ratioP2
67828;SDS011;54626;45.436;10.942;2022-08-11T00:03:57;3.45;;;1.60;;
67828;SDS011;54626;45.436;10.942;2022-08-11T00:06:36;2.92;;;1.67;;
67828;SDS011;54626;45.436;10.942;2022-08-11T00:09:09;2.88;;;1.50;;
67828;SDS011;54626;45.436;10.942;2022-08-11T00:11:51;3.20;;;1.60;;
67828;SDS011;54626;45.436;10.942;2022-08-11T00:14:31;4.93;;;1.73;;
67828;SDS011;54626;45.436;10.942;2022-08-11T00:19:31;4.30;;;1.83;;
67828;SDS011;54626;45.436;10.942;2022-08-11T00:22:21;2.90;;;1.60;;
67828;SDS011;54626;45.436;10.942;2022-08-11T00:24:48;3.80;;;1.52;;
67828;SDS011;54626;45.436;10.942;2022-08-11T00:27:32;2.90;;;1.70;;
67828;SDS011;54626;45.436;10.942;2022-08-11T00:30:05;2.30;;;1.40;;
67828;SDS011;54626;45.436;10.942;2022-08-11T00:32:34;3.67;;;1.63;;
67828;SDS011;54626;45.436;10.942;2022-08-11T00:35:06;2.90;;;1.35;;
67828;SDS011;54626;45.436;10.942;2022-08-11T00:37:56;3.38;;;1.38;;
67828;SDS011;54626;45.436;10.942;2022-08-11T00:40:58;3.00;;;1.80;;
67828;SDS011;54626;45.436;10.942;2022-08-11T00:46:48;2.58;;;1.90;;
67828;SDS011;54626;45.436;10.942;2022-08-11T00:49:29;5.60;;;2.97;;
67828;SDS011;54626;45.436;10.942;2022-08-11T00:52:12;2.22;;;1.70;;
67828;SDS011;54626;45.436;10.942;2022-08-11T01:12:54;3.50;;;1.67;;
67828;SDS011;54626;45.436;10.942;2022-08-11T01:18:20;2.63;;;1.30;;
67828;SDS011;54626;45.436;10.942;2022-08-11T01:38:42;2.22;;;1.58;;
67828;SDS011;54626;45.436;10.942;2022-08-11T01:43:51;3.70;;;1.48;;
67828;SDS011;54626;45.436;10.942;2022-08-11T01:46:52;4.25;;;1.60;;
67828;SDS011;54626;45.436;10.942;2022-08-11T01:49:33;3.22;;;1.88;;
67828;SDS011;54626;45.436;10.942;2022-08-11T01:52:27;2.47;;;1.45;;
67828;SDS011;54626;45.436;10.942;2022-08-11T01:55:10;4.43;;;1.70;;
67828;SDS011;54626;45.436;10.942;2022-08-11T01:57:44;3.80;;;1.80;;
67828;SDS011;54626;45.436;10.942;2022-08-11T02:00:19;2.85;;;1.73;;
67828;SDS011;54626;45.436;10.942;2022-08-11T02:03:16;3.28;;;1.40;;
67828;SDS011;54626;45.436;10.942;2022-08-11T02:08:47;2.90;;;1.35;;
67828;SDS011;54626;45.436;10.942;2022-08-11T02:11:31;5.13;;;1.63;;
67828;SDS011;54626;45.436;10.942;2022-08-11T02:14:18;3.17;;;1.90;;
67828;SDS011;54626;45.436;10.942;2022-08-11T02:22:48;3.03;;;1.60;;
67828;SDS011;54626;45.436;10.942;2022-08-11T02:26:02;4.40;;;1.77;;
67828;SDS011;54626;45.436;10.942;2022-08-11T02:34:57;2.90;;;1.70;;
67828;SDS011;54626;45.436;10.942;2022-08-11T02:40:52;4.35;;;2.20;;
67828;SDS011;54626;45.436;10.942;2022-08-11T02:44:19;3.03;;;2.13;;
67828;SDS011;54626;45.436;10.942;2022-08-11T02:47:06;3.35;;;1.83;;
67828;SDS011;54626;45.436;10.942;2022-08-11T02:55:37;3.33;;;2.08;;
67828;SDS011;54626;45.436;10.942;2022-08-11T03:01:54;2.03;;;1.50;;
67828;SDS011;54626;45.436;10.942;2022-08-11T03:04:36;3.58;;;2.20;;
67828;SDS011;54626;45.436;10.942;2022-08-11T03:10:02;3.33;;;2.20;;
67828;SDS011;54626;45.436;10.942;2022-08-11T03:12:44;2.85;;;1.30;;
67828;SDS011;54626;45.436;10.942;2022-08-11T03:19:20;2.85;;;1.90;;
67828;SDS011;54626;45.436;10.942;2022-08-11T03:21:23;2.53;;;1.95;;
67828;SDS011;54626;45.436;10.942;2022-08-11T03:24:19;3.47;;;2.50;;
67828;SDS011;54626;45.436;10.942;2022-08-11T03:27:36;2.65;;;1.80;;
67828;SDS011;54626;45.436;10.942;2022-08-11T03:29:57;2.00;;;1.42;;
67828;SDS011;54626;45.436;10.942;2022-08-11T03:32:36;4.70;;;2.05;;
67828;SDS011;54626;45.436;10.942;2022-08-11T03:35:42;5.70;;;2.08;;
67828;SDS011;54626;45.436;10.942;2022-08-11T03:38:14;3.17;;;1.77;;
67828;SDS011;54626;45.436;10.942;2022-08-11T03:41:05;5.43;;;2.50;;
67828;SDS011;54626;45.436;10.942;2022-08-11T03:44:24;3.70;;;2.33;;
67828;SDS011;54626;45.436;10.942;2022-08-11T04:18:19;3.75;;;2.50;;
67828;SDS011;54626;45.436;10.942;2022-08-11T04:29:45;3.67;;;2.65;;
67828;SDS011;54626;45.436;10.942;2022-08-11T04:35:38;3.80;;;2.10;;
67828;SDS011;54626;45.436;10.942;2022-08-11T04:57:21;5.30;;;2.42;;
67828;SDS011;54626;45.436;10.942;2022-08-11T05:01:04;4.90;;;2.67;;
67828;SDS011;54626;45.436;10.942;2022-08-11T05:12:45;6.00;;;3.03;;
67828;SDS011;54626;45.436;10.942;2022-08-11T05:15:17;8.20;;;2.60;;
67828;SDS011;54626;45.436;10.942;2022-08-11T05:18:15;4.95;;;2.20;;
67828;SDS011;54626;45.436;10.942;2022-08-11T05:21:06;3.80;;;2.50;;
67828;SDS011;54626;45.436;10.942;2022-08-11T05:23:56;3.42;;;2.30;;
67828;SDS011;54626;45.436;10.942;2022-08-11T05:26:48;3.00;;;2.22;;
67828;SDS011;54626;45.436;10.942;2022-08-11T05:29:40;3.13;;;1.92;;
67828;SDS011;54626;45.436;10.942;2022-08-11T05:32:31;3.40;;;2.00;;
67828;SDS011;54626;45.436;10.942;2022-08-11T05:35:48;2.38;;;1.50;;
67828;SDS011;54626;45.436;10.942;2022-08-11T05:38:28;4.22;;;1.70;;
67828;SDS011;54626;45.436;10.942;2022-08-11T05:41:15;3.83;;;1.95;;
67828;SDS011;54626;45.436;10.942;2022-08-11T05:44:03;2.88;;;1.75;;
67828;SDS011;54626;45.436;10.942;2022-08-11T05:46:48;3.40;;;1.90;;
67828;SDS011;54626;45.436;10.942;2022-08-11T05:49:34;3.35;;;2.05;;
67828;SDS011;54626;45.436;10.942;2022-08-11T05:52:24;4.88;;;1.88;;
67828;SDS011;54626;45.436;10.942;2022-08-11T05:55:12;3.15;;;1.75;;
67828;SDS011;54626;45.436;10.942;2022-08-11T05:58:00;2.67;;;1.50;;
67828;SDS011;54626;45.436;10.942;2022-08-11T06:00:30;3.05;;;1.63;;
67828;SDS011;54626;45.436;10.942;2022-08-11T06:02:59;2.00;;;1.45;;
67828;SDS011;54626;45.436;10.942;2022-08-11T06:05:32;2.28;;;1.48;;
67828;SDS011;54626;45.436;10.942;2022-08-11T06:08:09;2.03;;;1.30;;
67828;SDS011;54626;45.436;10.942;2022-08-11T06:10:41;2.20;;;1.33;;
67828;SDS011;54626;45.436;10.942;2022-08-11T06:13:09;1.30;;;1.00;;
67828;SDS011;54626;45.436;10.942;2022-08-11T06:15:43;2.15;;;1.15;;
67828;SDS011;54626;45.436;10.942;2022-08-11T06:18:11;1.95;;;1.20;;
67828;SDS011;54626;45.436;10.942;2022-08-11T06:20:49;2.50;;;1.52;;
67828;SDS011;54626;45.436;10.942;2022-08-11T06:23:21;3.53;;;1.20;;
67828;SDS011;54626;45.436;10.942;2022-08-11T06:25:50;4.63;;;1.52;;
67828;SDS011;54626;45.436;10.942;2022-08-11T06:28:17;3.05;;;1.20;;
67828;SDS011;54626;45.436;10.942;2022-08-11T06:30:46;1.85;;;1.35;;
67828;SDS011;54626;45.436;10.942;2022-08-11T06:33:15;2.30;;;1.27;;
67828;SDS011;54626;45.436;10.942;2022-08-11T06:35:59;2.13;;;1.10;;
67828;SDS011;54626;45.436;10.942;2022-08-11T06:41:20;4.03;;;1.17;;
67828;SDS011;54626;45.436;10.942;2022-08-11T06:46:33;1.10;;;0.90;;
67828;SDS011;54626;45.436;10.942;2022-08-11T06:49:07;2.50;;;1.30;;
67828;SDS011;54626;45.436;10.942;2022-08-11T06:51:54;2.45;;;1.00;;
67828;SDS011;54626;45.436;10.942;2022-08-11T06:54:31;3.70;;;1.70;;
67828;SDS011;54626;45.436;10.942;2022-08-11T06:56:59;2.13;;;1.00;;
67828;SDS011;54626;45.436;10.942;2022-08-11T07:00:00;1.90;;;0.90;;
67828;SDS011;54626;45.436;10.942;2022-08-11T07:14:32;1.85;;;1.10;;
67828;SDS011;54626;45.436;10.942;2022-08-11T07:17:25;1.60;;;0.90;;
67828;SDS011;54626;45.436;10.942;2022-08-11T07:19:53;4.13;;;0.90;;
67828;SDS011;54626;45.436;10.942;2022-08-11T07:22:40;2.03;;;1.00;;
67828;SDS011;54626;45.436;10.942;2022-08-11T07:25:35;2.33;;;1.15;;
67828;SDS011;54626;45.436;10.942;2022-08-11T07:28:24;1.80;;;1.25;;
67828;SDS011;54626;45.436;10.942;2022-08-11T07:31:11;1.88;;;0.88;;
67828;SDS011;54626;45.436;10.942;2022-08-11T07:33:45;2.47;;;1.10;;
67828;SDS011;54626;45.436;10.942;2022-08-11T07:36:39;1.10;;;0.90;;
67828;SDS011;54626;45.436;10.942;2022-08-11T07:39:07;1.55;;;0.90;;
67828;SDS011;54626;45.436;10.942;2022-08-11T07:41:38;2.97;;;1.20;;
67828;SDS011;54626;45.436;10.942;2022-08-11T07:44:05;2.03;;;1.02;;
67828;SDS011;54626;45.436;10.942;2022-08-11T07:46:39;2.38;;;1.42;;
67828;SDS011;54626;45.436;10.942;2022-08-11T07:49:27;3.00;;;1.20;;
67828;SDS011;54626;45.436;10.942;2022-08-11T07:52:13;3.25;;;1.45;;
67828;SDS011;54626;45.436;10.942;2022-08-11T07:54:58;1.65;;;0.95;;
67828;SDS011;54626;45.436;10.942;2022-08-11T07:57:26;3.85;;;1.88;;
67828;SDS011;54626;45.436;10.942;2022-08-11T08:01:18;2.13;;;0.98;;
67828;SDS011;54626;45.436;10.942;2022-08-11T08:03:48;1.70;;;0.80;;
67828;SDS011;54626;45.436;10.942;2022-08-11T08:06:33;1.92;;;1.10;;
67828;SDS011;54626;45.436;10.942;2022-08-11T08:09:22;1.33;;;0.85;;
67828;SDS011;54626;45.436;10.942;2022-08-11T08:12:09;1.58;;;0.90;;
67828;SDS011;54626;45.436;10.942;2022-08-11T08:14:56;1.48;;;0.90;;
67828;SDS011;54626;45.436;10.942;2022-08-11T08:17:42;1.88;;;1.15;;
67828;SDS011;54626;45.436;10.942;2022-08-11T08:20:39;1.75;;;0.90;;
67828;SDS011;54626;45.436;10.942;2022-08-11T08:23:10;1.25;;;0.80;;
67828;SDS011;54626;45.436;10.942;2022-08-11T08:25:38;1.88;;;0.90;;
67828;SDS011;54626;45.436;10.942;2022-08-11T08:30:40;3.08;;;1.20;;
67828;SDS011;54626;45.436;10.942;2022-08-11T08:33:18;2.47;;;1.58;;
67828;SDS011;54626;45.436;10.942;2022-08-11T08:35:51;2.85;;;0.90;;
67828;SDS011;54626;45.436;10.942;2022-08-11T08:41:08;2.03;;;1.00;;
67828;SDS011;54626;45.436;10.942;2022-08-11T08:44:00;2.30;;;1.00;;
67828;SDS011;54626;45.436;10.942;2022-08-11T08:46:53;1.75;;;0.80;;
67828;SDS011;54626;45.436;10.942;2022-08-11T08:49:35;2.17;;;1.05;;
67828;SDS011;54626;45.436;10.942;2022-08-11T08:52:07;2.45;;;0.95;;
67828;SDS011;54626;45.436;10.942;2022-08-11T08:55:01;2.45;;;1.23;;
67828;SDS011;54626;45.436;10.942;2022-08-11T08:57:28;1.60;;;1.05;;
67828;SDS011;54626;45.436;10.942;2022-08-11T09:00:06;2.78;;;1.52;;
67828;SDS011;54626;45.436;10.942;2022-08-11T09:02:34;1.63;;;1.08;;
67828;SDS011;54626;45.436;10.942;2022-08-11T09:05:04;1.38;;;0.80;;
67828;SDS011;54626;45.436;10.942;2022-08-11T09:07:42;1.67;;;0.90;;
67828;SDS011;54626;45.436;10.942;2022-08-11T09:10:12;1.15;;;0.73;;
67828;SDS011;54626;45.436;10.942;2022-08-11T09:12:40;1.20;;;0.80;;
67828;SDS011;54626;45.436;10.942;2022-08-11T09:15:13;1.80;;;1.05;;
67828;SDS011;54626;45.436;10.942;2022-08-11T09:17:46;1.92;;;0.90;;
67828;SDS011;54626;45.436;10.942;2022-08-11T09:20:22;2.47;;;0.73;;
67828;SDS011;54626;45.436;10.942;2022-08-11T09:23:16;1.73;;;1.40;;
67828;SDS011;54626;45.436;10.942;2022-08-11T09:26:21;1.50;;;0.82;;
67828;SDS011;54626;45.436;10.942;2022-08-11T09:29:07;1.70;;;0.93;;
67828;SDS011;54626;45.436;10.942;2022-08-11T09:31:36;1.60;;;0.70;;
67828;SDS011;54626;45.436;10.942;2022-08-11T09:34:07;1.10;;;0.70;;
67828;SDS011;54626;45.436;10.942;2022-08-11T09:36:35;1.15;;;0.75;;
67828;SDS011;54626;45.436;10.942;2022-08-11T09:39:22;1.60;;;0.70;;
67828;SDS011;54626;45.436;10.942;2022-08-11T09:42:08;1.67;;;0.98;;
67828;SDS011;54626;45.436;10.942;2022-08-11T09:44:41;1.25;;;0.90;;
67828;SDS011;54626;45.436;10.942;2022-08-11T09:47:25;3.47;;;0.85;;
67828;SDS011;54626;45.436;10.942;2022-08-11T09:49:56;1.55;;;0.80;;
67828;SDS011;54626;45.436;10.942;2022-08-11T09:52:36;1.50;;;0.90;;
67828;SDS011;54626;45.436;10.942;2022-08-11T09:55:04;1.45;;;1.00;;
67828;SDS011;54626;45.436;10.942;2022-08-11T09:57:38;2.17;;;0.90;;
67828;SDS011;54626;45.436;10.942;2022-08-11T10:00:30;1.95;;;1.00;;
67828;SDS011;54626;45.436;10.942;2022-08-11T10:03:16;1.80;;;0.80;;
67828;SDS011;54626;45.436;10.942;2022-08-11T10:05:49;2.00;;;0.95;;
67828;SDS011;54626;45.436;10.942;2022-08-11T10:08:39;2.13;;;0.90;;
67828;SDS011;54626;45.436;10.942;2022-08-11T10:11:11;3.85;;;0.95;;
67828;SDS011;54626;45.436;10.942;2022-08-11T10:13:41;2.00;;;1.00;;
67828;SDS011;54626;45.436;10.942;2022-08-11T10:16:47;1.70;;;1.00;;
67828;SDS011;54626;45.436;10.942;2022-08-11T10:19:14;2.40;;;1.13;;
67828;SDS011;54626;45.436;10.942;2022-08-11T10:21:46;1.83;;;0.90;;
67828;SDS011;54626;45.436;10.942;2022-08-11T10:24:39;1.45;;;0.95;;
67828;SDS011;54626;45.436;10.942;2022-08-11T10:27:25;1.60;;;1.10;;
67828;SDS011;54626;45.436;10.942;2022-08-11T10:30:12;2.33;;;1.10;;
67828;SDS011;54626;45.436;10.942;2022-08-11T10:33:01;1.90;;;0.95;;
67828;SDS011;54626;45.436;10.942;2022-08-11T10:36:03;1.33;;;0.98;;
67828;SDS011;54626;45.436;10.942;2022-08-11T10:38:42;1.42;;;0.93;;
67828;SDS011;54626;45.436;10.942;2022-08-11T10:41:11;2.42;;;0.95;;
67828;SDS011;54626;45.436;10.942;2022-08-11T10:43:56;1.98;;;1.15;;
67828;SDS011;54626;45.436;10.942;2022-08-11T10:46:28;1.90;;;0.90;;
67828;SDS011;54626;45.436;10.942;2022-08-11T10:49:13;3.70;;;1.42;;
67828;SDS011;54626;45.436;10.942;2022-08-11T10:51:40;2.45;;;1.20;;
67828;SDS011;54626;45.436;10.942;2022-08-11T10:54:49;2.47;;;1.30;;
67828;SDS011;54626;45.436;10.942;2022-08-11T10:57:34;1.85;;;1.25;;
67828;SDS011;54626;45.436;10.942;2022-08-11T11:00:30;1.98;;;0.88;;
67828;SDS011;54626;45.436;10.942;2022-08-11T11:02:57;1.95;;;1.02;;
67828;SDS011;54626;45.436;10.942;2022-08-11T11:05:45;1.85;;;0.90;;
67828;SDS011;54626;45.436;10.942;2022-08-11T11:08:32;1.58;;;1.10;;
67828;SDS011;54626;45.436;10.942;2022-08-11T11:11:27;2.45;;;1.08;;
67828;SDS011;54626;45.436;10.942;2022-08-11T11:14:17;4.05;;;0.98;;
67828;SDS011;54626;45.436;10.942;2022-08-11T11:17:12;2.38;;;1.00;;
67828;SDS011;54626;45.436;10.942;2022-08-11T11:19:52;1.85;;;1.30;;
67828;SDS011;54626;45.436;10.942;2022-08-11T11:22:23;3.10;;;1.10;;
67828;SDS011;54626;45.436;10.942;2022-08-11T11:25:28;2.38;;;1.25;;
67828;SDS011;54626;45.436;10.942;2022-08-11T11:30:47;3.38;;;1.48;;
67828;SDS011;54626;45.436;10.942;2022-08-11T11:33:28;1.73;;;1.00;;
67828;SDS011;54626;45.436;10.942;2022-08-11T11:38:53;1.42;;;0.90;;
67828;SDS011;54626;45.436;10.942;2022-08-11T11:41:22;1.65;;;1.10;;
67828;SDS011;54626;45.436;10.942;2022-08-11T11:43:55;1.52;;;1.02;;
67828;SDS011;54626;45.436;10.942;2022-08-11T11:46:23;2.33;;;1.30;;
67828;SDS011;54626;45.436;10.942;2022-08-11T11:48:55;2.22;;;1.23;;
67828;SDS011;54626;45.436;10.942;2022-08-11T11:51:23;1.55;;;1.17;;
67828;SDS011;54626;45.436;10.942;2022-08-11T11:53:51;2.25;;;1.50;;
67828;SDS011;54626;45.436;10.942;2022-08-11T11:56:18;2.70;;;1.20;;
67828;SDS011;54626;45.436;10.942;2022-08-11T11:58:47;1.17;;;1.00;;
67828;SDS011;54626;45.436;10.942;2022-08-11T12:01:36;4.03;;;1.33;;
67828;SDS011;54626;45.436;10.942;2022-08-11T12:04:03;2.58;;;1.10;;
67828;SDS011;54626;45.436;10.942;2022-08-11T12:06:33;1.80;;;1.10;;
67828;SDS011;54626;45.436;10.942;2022-08-11T12:09:02;3.17;;;1.10;;
67828;SDS011;54626;45.436;10.942;2022-08-11T12:11:30;1.73;;;1.25;;
67828;SDS011;54626;45.436;10.942;2022-08-11T12:14:19;2.10;;;1.00;;
67828;SDS011;54626;45.436;10.942;2022-08-11T12:16:46;2.42;;;1.20;;
67828;SDS011;54626;45.436;10.942;2022-08-11T12:19:14;1.27;;;1.00;;
67828;SDS011;54626;45.436;10.942;2022-08-11T12:21:56;1.40;;;1.05;;
67828;SDS011;54626;45.436;10.942;2022-08-11T12:24:41;2.13;;;1.10;;
67828;SDS011;54626;45.436;10.942;2022-08-11T12:27:27;2.28;;;1.10;;
67828;SDS011;54626;45.436;10.942;2022-08-11T12:29:59;2.53;;;1.20;;
67828;SDS011;54626;45.436;10.942;2022-08-11T12:32:32;3.25;;;1.05;;
67828;SDS011;54626;45.436;10.942;2022-08-11T12:35:01;1.95;;;1.10;;
67828;SDS011;54626;45.436;10.942;2022-08-11T12:37:32;4.72;;;1.42;;
67828;SDS011;54626;45.436;10.942;2022-08-11T12:40:03;2.70;;;1.20;;
67828;SDS011;54626;45.436;10.942;2022-08-11T12:43:12;2.05;;;1.25;;
67828;SDS011;54626;45.436;10.942;2022-08-11T12:46:06;2.38;;;1.23;;
67828;SDS011;54626;45.436;10.942;2022-08-11T12:48:35;2.88;;;1.40;;
67828;SDS011;54626;45.436;10.942;2022-08-11T12:51:28;1.85;;;1.10;;
67828;SDS011;54626;45.436;10.942;2022-08-11T12:57:11;2.33;;;1.65;;
67828;SDS011;54626;45.436;10.942;2022-08-11T13:00:04;2.88;;;1.20;;
67828;SDS011;54626;45.436;10.942;2022-08-11T13:03:08;1.60;;;1.33;;
67828;SDS011;54626;45.436;10.942;2022-08-11T13:05:55;1.80;;;1.10;;
67828;SDS011;54626;45.436;10.942;2022-08-11T13:08:23;1.50;;;0.90;;
67828;SDS011;54626;45.436;10.942;2022-08-11T13:10:51;2.17;;;1.23;;
67828;SDS011;54626;45.436;10.942;2022-08-11T13:13:38;2.15;;;1.20;;
67828;SDS011;54626;45.436;10.942;2022-08-11T13:16:22;2.53;;;1.27;;
67828;SDS011;54626;45.436;10.942;2022-08-11T13:18:51;1.77;;;1.25;;
67828;SDS011;54626;45.436;10.942;2022-08-11T13:21:19;1.92;;;1.30;;
67828;SDS011;54626;45.436;10.942;2022-08-11T13:23:47;3.88;;;1.40;;
67828;SDS011;54626;45.436;10.942;2022-08-11T13:26:31;5.03;;;1.60;;
67828;SDS011;54626;45.436;10.942;2022-08-11T13:29:22;3.90;;;1.38;;
67828;SDS011;54626;45.436;10.942;2022-08-11T13:31:50;3.45;;;1.42;;
67828;SDS011;54626;45.436;10.942;2022-08-11T13:34:18;2.33;;;1.40;;
67828;SDS011;54626;45.436;10.942;2022-08-11T13:36:47;3.45;;;1.42;;
67828;SDS011;54626;45.436;10.942;2022-08-11T13:39:15;2.42;;;1.38;;
67828;SDS011;54626;45.436;10.942;2022-08-11T13:41:45;2.10;;;1.40;;
67828;SDS011;54626;45.436;10.942;2022-08-11T13:44:15;2.38;;;1.33;;
67828;SDS011;54626;45.436;10.942;2022-08-11T13:46:50;1.75;;;1.30;;
67828;SDS011;54626;45.436;10.942;2022-08-11T13:49:19;2.10;;;1.30;;
67828;SDS011;54626;45.436;10.942;2022-08-11T13:51:46;2.00;;;1.35;;
67828;SDS011;54626;45.436;10.942;2022-08-11T13:54:17;1.95;;;1.02;;
67828;SDS011;54626;45.436;10.942;2022-08-11T13:57:18;2.55;;;1.30;;
67828;SDS011;54626;45.436;10.942;2022-08-11T14:00:07;1.60;;;1.25;;
67828;SDS011;54626;45.436;10.942;2022-08-11T14:02:53;6.63;;;1.77;;
67828;SDS011;54626;45.436;10.942;2022-08-11T14:05:47;3.78;;;1.45;;
67828;SDS011;54626;45.436;10.942;2022-08-11T14:08:18;3.00;;;1.55;;
67828;SDS011;54626;45.436;10.942;2022-08-11T14:11:05;3.35;;;1.50;;
67828;SDS011;54626;45.436;10.942;2022-08-11T14:14:12;2.20;;;1.20;;
67828;SDS011;54626;45.436;10.942;2022-08-11T14:16:44;3.08;;;1.85;;
67828;SDS011;54626;45.436;10.942;2022-08-11T14:19:12;3.63;;;1.98;;
67828;SDS011;54626;45.436;10.942;2022-08-11T14:21:40;2.58;;;1.40;;
67828;SDS011;54626;45.436;10.942;2022-08-11T14:24:39;3.65;;;1.40;;
67828;SDS011;54626;45.436;10.942;2022-08-11T14:27:07;2.17;;;1.40;;
67828;SDS011;54626;45.436;10.942;2022-08-11T14:29:56;2.88;;;1.50;;
67828;SDS011;54626;45.436;10.942;2022-08-11T14:32:24;3.15;;;1.42;;
67828;SDS011;54626;45.436;10.942;2022-08-11T14:34:52;2.25;;;1.27;;
67828;SDS011;54626;45.436;10.942;2022-08-11T14:37:23;2.83;;;1.30;;
67828;SDS011;54626;45.436;10.942;2022-08-11T14:39:51;2.30;;;1.88;;
67828;SDS011;54626;45.436;10.942;2022-08-11T14:42:28;1.88;;;1.40;;
67828;SDS011;54626;45.436;10.942;2022-08-11T14:45:16;3.70;;;1.33;;
67828;SDS011;54626;45.436;10.942;2022-08-11T14:48:21;3.65;;;1.50;;
67828;SDS011;54626;45.436;10.942;2022-08-11T14:50:48;2.53;;;1.17;;
67828;SDS011;54626;45.436;10.942;2022-08-11T14:53:15;5.95;;;1.40;;
67828;SDS011;54626;45.436;10.942;2022-08-11T14:55:44;4.13;;;1.33;;
67828;SDS011;54626;45.436;10.942;2022-08-11T14:58:29;3.83;;;1.80;;
67828;SDS011;54626;45.436;10.942;2022-08-11T15:00:59;4.35;;;1.60;;
67828;SDS011;54626;45.436;10.942;2022-08-11T15:03:28;2.95;;;1.75;;
67828;SDS011;54626;45.436;10.942;2022-08-11T15:05:57;3.53;;;1.40;;
67828;SDS011;54626;45.436;10.942;2022-08-11T15:12:10;3.25;;;1.63;;
67828;SDS011;54626;45.436;10.942;2022-08-11T15:14:59;2.85;;;1.63;;
67828;SDS011;54626;45.436;10.942;2022-08-11T15:17:47;3.58;;;1.73;;
67828;SDS011;54626;45.436;10.942;2022-08-11T15:20:17;2.47;;;1.30;;
67828;SDS011;54626;45.436;10.942;2022-08-11T15:23:05;2.30;;;1.50;;
67828;SDS011;54626;45.436;10.942;2022-08-11T15:28:38;2.47;;;1.50;;
67828;SDS011;54626;45.436;10.942;2022-08-11T15:31:26;3.85;;;1.42;;
67828;SDS011;54626;45.436;10.942;2022-08-11T15:34:15;2.90;;;1.40;;
67828;SDS011;54626;45.436;10.942;2022-08-11T15:37:03;4.07;;;1.73;;
67828;SDS011;54626;45.436;10.942;2022-08-11T15:43:03;2.65;;;1.48;;
67828;SDS011;54626;45.436;10.942;2022-08-11T15:45:56;3.53;;;1.58;;
67828;SDS011;54626;45.436;10.942;2022-08-11T15:53:38;2.95;;;1.40;;
67828;SDS011;54626;45.436;10.942;2022-08-11T15:56:07;2.88;;;1.40;;
67828;SDS011;54626;45.436;10.942;2022-08-11T15:58:37;2.38;;;1.27;;
67828;SDS011;54626;45.436;10.942;2022-08-11T16:01:44;2.78;;;1.40;;
67828;SDS011;54626;45.436;10.942;2022-08-11T16:04:31;1.73;;;1.30;;
67828;SDS011;54626;45.436;10.942;2022-08-11T16:09:41;3.38;;;1.80;;
67828;SDS011;54626;45.436;10.942;2022-08-11T16:12:29;2.47;;;1.40;;
67828;SDS011;54626;45.436;10.942;2022-08-11T16:14:58;3.50;;;1.40;;
67828;SDS011;54626;45.436;10.942;2022-08-11T16:17:47;4.07;;;1.20;;
67828;SDS011;54626;45.436;10.942;2022-08-11T16:20:22;1.67;;;1.20;;
67828;SDS011;54626;45.436;10.942;2022-08-11T16:22:51;2.13;;;1.38;;
67828;SDS011;54626;45.436;10.942;2022-08-11T16:25:28;2.35;;;1.45;;
67828;SDS011;54626;45.436;10.942;2022-08-11T16:28:15;3.95;;;1.17;;
67828;SDS011;54626;45.436;10.942;2022-08-11T16:30:42;3.28;;;1.40;;
67828;SDS011;54626;45.436;10.942;2022-08-11T16:33:11;1.45;;;0.90;;
67828;SDS011;54626;45.436;10.942;2022-08-11T16:35:58;1.98;;;1.10;;
67828;SDS011;54626;45.436;10.942;2022-08-11T16:38:43;3.53;;;1.33;;
67828;SDS011;54626;45.436;10.942;2022-08-11T16:41:12;11.40;;;1.70;;
67828;SDS011;54626;45.436;10.942;2022-08-11T16:43:41;2.42;;;1.30;;
67828;SDS011;54626;45.436;10.942;2022-08-11T16:46:29;1.63;;;0.90;;
67828;SDS011;54626;45.436;10.942;2022-08-11T16:49:22;1.88;;;0.80;;
67828;SDS011;54626;45.436;10.942;2022-08-11T16:51:55;5.10;;;1.58;;
67828;SDS011;54626;45.436;10.942;2022-08-11T16:54:22;5.68;;;1.20;;
67828;SDS011;54626;45.436;10.942;2022-08-11T16:56:53;3.35;;;1.10;;
67828;SDS011;54626;45.436;10.942;2022-08-11T16:59:21;3.78;;;1.10;;
67828;SDS011;54626;45.436;10.942;2022-08-11T17:01:50;3.03;;;1.05;;
67828;SDS011;54626;45.436;10.942;2022-08-11T17:07:36;3.42;;;1.35;;
67828;SDS011;54626;45.436;10.942;2022-08-11T17:10:27;1.85;;;1.00;;
67828;SDS011;54626;45.436;10.942;2022-08-11T17:13:25;1.30;;;0.85;;
67828;SDS011;54626;45.436;10.942;2022-08-11T17:15:55;1.40;;;1.10;;
67828;SDS011;54626;45.436;10.942;2022-08-11T17:18:56;1.27;;;0.88;;
67828;SDS011;54626;45.436;10.942;2022-08-11T17:21:24;2.97;;;1.00;;
67828;SDS011;54626;45.436;10.942;2022-08-11T17:23:59;2.20;;;1.02;;
67828;SDS011;54626;45.436;10.942;2022-08-11T17:26:35;3.28;;;1.63;;
67828;SDS011;54626;45.436;10.942;2022-08-11T17:29:34;1.50;;;0.90;;
67828;SDS011;54626;45.436;10.942;2022-08-11T17:32:30;2.47;;;0.98;;
67828;SDS011;54626;45.436;10.942;2022-08-11T17:35:26;2.35;;;0.82;;
67828;SDS011;54626;45.436;10.942;2022-08-11T17:40:44;2.47;;;1.00;;
67828;SDS011;54626;45.436;10.942;2022-08-11T17:43:30;1.10;;;0.80;;
67828;SDS011;54626;45.436;10.942;2022-08-11T17:46:17;1.30;;;0.88;;
67828;SDS011;54626;45.436;10.942;2022-08-11T17:49:03;2.78;;;0.85;;
67828;SDS011;54626;45.436;10.942;2022-08-11T17:51:33;1.98;;;0.93;;
67828;SDS011;54626;45.436;10.942;2022-08-11T17:54:19;2.85;;;1.30;;
67828;SDS011;54626;45.436;10.942;2022-08-11T17:57:07;1.27;;;0.82;;
67828;SDS011;54626;45.436;10.942;2022-08-11T17:59:53;1.30;;;0.93;;
67828;SDS011;54626;45.436;10.942;2022-08-11T18:02:27;1.40;;;0.80;;
67828;SDS011;54626;45.436;10.942;2022-08-11T18:05:14;2.00;;;0.95;;
67828;SDS011;54626;45.436;10.942;2022-08-11T18:07:43;1.73;;;1.10;;
67828;SDS011;54626;45.436;10.942;2022-08-11T18:10:29;7.03;;;1.50;;
67828;SDS011;54626;45.436;10.942;2022-08-11T18:13:22;3.22;;;1.58;;
67828;SDS011;54626;45.436;10.942;2022-08-11T18:16:08;2.58;;;1.00;;
67828;SDS011;54626;45.436;10.942;2022-08-11T18:18:54;1.98;;;1.10;;
67828;SDS011;54626;45.436;10.942;2022-08-11T18:21:42;2.55;;;1.20;;
67828;SDS011;54626;45.436;10.942;2022-08-11T18:24:46;3.13;;;1.20;;
67828;SDS011;54626;45.436;10.942;2022-08-11T18:27:33;3.17;;;1.10;;
67828;SDS011;54626;45.436;10.942;2022-08-11T18:30:19;3.20;;;1.10;;
67828;SDS011;54626;45.436;10.942;2022-08-11T18:33:03;2.65;;;1.00;;
67828;SDS011;54626;45.436;10.942;2022-08-11T18:36:11;2.92;;;1.02;;
67828;SDS011;54626;45.436;10.942;2022-08-11T18:38:58;2.88;;;1.25;;
67828;SDS011;54626;45.436;10.942;2022-08-11T18:41:44;1.95;;;1.00;;
67828;SDS011;54626;45.436;10.942;2022-08-11T18:44:31;2.22;;;1.58;;
67828;SDS011;54626;45.436;10.942;2022-08-11T18:47:19;3.00;;;1.10;;
67828;SDS011;54626;45.436;10.942;2022-08-11T18:50:07;4.68;;;1.67;;
67828;SDS011;54626;45.436;10.942;2022-08-11T18:53:04;6.18;;;1.20;;
67828;SDS011;54626;45.436;10.942;2022-08-11T18:55:50;4.18;;;1.60;;
67828;SDS011;54626;45.436;10.942;2022-08-11T18:58:36;2.13;;;1.05;;
67828;SDS011;54626;45.436;10.942;2022-08-11T19:01:25;4.93;;;1.58;;
67828;SDS011;54626;45.436;10.942;2022-08-11T19:04:11;9.88;;;1.50;;
67828;SDS011;54626;45.436;10.942;2022-08-11T19:07:03;2.90;;;1.30;;
67828;SDS011;54626;45.436;10.942;2022-08-11T19:09:48;4.85;;;1.23;;
67828;SDS011;54626;45.436;10.942;2022-08-11T19:12:37;3.72;;;1.40;;
67828;SDS011;54626;45.436;10.942;2022-08-11T19:15:23;5.63;;;1.65;;
67828;SDS011;54626;45.436;10.942;2022-08-11T19:18:12;5.70;;;1.20;;
67828;SDS011;54626;45.436;10.942;2022-08-11T19:21:01;2.15;;;1.27;;
67828;SDS011;54626;45.436;10.942;2022-08-11T19:23:47;3.40;;;1.88;;
67828;SDS011;54626;45.436;10.942;2022-08-11T19:26:35;2.50;;;1.20;;